createdAt,value
2019-04-20T00:00:46.872Z,69.33
2019-04-20T00:03:13.862Z,69.12
2019-04-20T00:05:46.239Z,69.81
2019-04-20T00:08:22.614Z,70.66
2019-04-20T00:10:55.074Z,71.38
2019-04-20T00:13:28.966Z,71.16
2019-04-20T00:15:47.239Z,71.43
2019-04-20T00:18:19.156Z,70.81
2019-04-20T00:21:00.256Z,70.94
2019-04-20T00:29:30.921Z,70.10
2019-04-20T00:31:56.554Z,69.89
2019-04-20T00:34:22.875Z,70.11
2019-04-20T00:36:45.351Z,70.60
2019-04-20T00:39:17.185Z,70.49
2019-04-20T00:41:53.114Z,70.69
2019-04-20T00:44:23.337Z,71.49
2019-04-20T00:47:02.067Z,71.87
2019-04-20T00:49:32.217Z,72.34
2019-04-20T00:52:15.195Z,71.27
2019-04-20T00:54:18.535Z,70.64
2019-04-20T00:56:49.837Z,70.37
2019-04-20T00:59:32.081Z,70.90
2019-04-20T01:02:09.061Z,70.98
2019-04-20T01:04:46.231Z,71.25
2019-04-20T01:07:29.823Z,71.64
2019-04-20T01:10:13.604Z,71.64
2019-04-20T01:12:44.417Z,71.65
2019-04-20T01:15:24.457Z,72.37
2019-04-20T01:17:44.886Z,73.04
2019-04-20T01:20:13.798Z,73.13
2019-04-20T01:22:52.272Z,73.33
2019-04-20T01:25:22.124Z,72.99
2019-04-20T01:28:04.519Z,72.16
2019-04-20T01:30:26.896Z,72.16
2019-04-20T01:32:59.932Z,72.36
2019-04-20T01:35:36.498Z,72.89
2019-04-20T01:38:07.337Z,72.40
2019-04-20T01:40:21.186Z,72.71
2019-04-20T01:42:51.196Z,73.24
2019-04-20T01:45:26.783Z,73.45
2019-04-20T01:47:54.437Z,72.91
2019-04-20T01:50:28.402Z,72.91
2019-04-20T01:53:06.918Z,73.42
2019-04-20T01:55:55.390Z,72.99
2019-04-20T01:58:25.506Z,73.04
2019-04-20T02:00:44.999Z,73.04
2019-04-20T02:03:36.927Z,74.17
2019-04-20T02:06:06.172Z,74.17
2019-04-20T02:08:34.164Z,73.78
2019-04-20T02:11:07.386Z,73.78
2019-04-20T02:13:42.321Z,72.70
2019-04-20T02:16:15.802Z,72.98
2019-04-20T02:18:58.032Z,73.05
2019-04-20T02:21:29.990Z,73.21
2019-04-20T02:23:48.019Z,73.40
2019-04-20T02:26:12.902Z,72.75
2019-04-20T02:29:06.967Z,72.48
2019-04-20T02:31:55.379Z,72.67
2019-04-20T02:37:45.062Z,72.48
2019-04-20T02:40:07.145Z,72.09
2019-04-20T02:42:46.278Z,72.90
2019-04-20T02:47:45.602Z,73.12
2019-04-20T02:55:22.616Z,72.47
2019-04-20T03:00:22.070Z,73.06
2019-04-20T03:02:41.211Z,72.99
2019-04-20T03:05:12.232Z,72.92
2019-04-20T03:07:54.419Z,73.21
2019-04-20T03:10:26.607Z,73.03
2019-04-20T03:12:59.762Z,72.95
2019-04-20T03:15:31.423Z,73.29
2019-04-20T03:17:59.669Z,73.56
2019-04-20T03:20:27.082Z,73.81
2019-04-20T03:23:18.754Z,74.27
2019-04-20T03:26:12.839Z,74.21
2019-04-20T03:28:54.288Z,73.85
2019-04-20T03:31:53.725Z,74.29
2019-04-20T03:34:27.515Z,74.36
2019-04-20T03:36:41.488Z,74.59
2019-04-20T03:39:07.022Z,74.64
2019-04-20T03:41:22.467Z,74.47
2019-04-20T03:43:47.721Z,74.37
2019-04-20T03:46:30.160Z,74.15
2019-04-20T03:49:05.709Z,74.21
2019-04-20T03:51:46.987Z,74.00
2019-04-20T03:54:19.933Z,73.79
2019-04-20T03:57:17.016Z,73.95
2019-04-20T03:59:50.866Z,73.81
2019-04-20T04:02:45.455Z,73.59
2019-04-20T04:05:08.827Z,73.59
2019-04-20T04:07:36.291Z,73.47
2019-04-20T04:10:14.077Z,73.85
2019-04-20T04:13:07.582Z,74.03
2019-04-20T04:15:46.805Z,74.66
2019-04-20T04:18:13.597Z,74.76
2019-04-20T04:20:45.513Z,75.15
2019-04-20T04:23:28.671Z,74.71
2019-04-20T04:26:04.082Z,75.38
2019-04-20T04:28:31.065Z,74.99
2019-04-20T04:31:09.442Z,74.66
2019-04-20T04:36:10.069Z,75.03
2019-04-20T04:38:57.078Z,75.33
2019-04-20T04:41:19.625Z,75.71
2019-04-20T04:43:44.383Z,73.90
2019-04-20T04:45:57.423Z,68.03
2019-04-20T04:48:32.099Z,68.03
2019-04-20T04:51:03.432Z,65.64
2019-04-20T04:53:42.891Z,64.34
2019-04-20T04:56:05.826Z,62.52
2019-04-20T04:58:31.931Z,61.37
2019-04-20T05:01:07.724Z,60.36
2019-04-20T05:03:58.203Z,60.19
2019-04-20T05:06:45.185Z,59.14
2019-04-20T05:09:03.850Z,58.66
2019-04-20T05:11:30.413Z,58.80
2019-04-20T05:14:05.641Z,60.18
2019-04-20T05:16:50.083Z,60.65
2019-04-20T05:19:24.745Z,61.40
2019-04-20T05:24:56.707Z,63.83
2019-04-20T05:27:51.191Z,64.06
2019-04-20T05:30:05.794Z,64.55
2019-04-20T05:32:44.963Z,65.53
2019-04-20T05:35:27.085Z,65.21
2019-04-20T05:38:05.064Z,63.91
2019-04-20T05:40:35.538Z,64.02
2019-04-20T05:43:15.481Z,64.46
2019-04-20T05:45:41.656Z,64.85
2019-04-20T05:48:19.461Z,67.08
2019-04-20T05:50:49.336Z,66.80
2019-04-20T05:53:20.245Z,67.01
2019-04-20T05:55:49.311Z,66.72
2019-04-20T05:58:26.338Z,67.92
2019-04-20T06:01:01.613Z,66.23
2019-04-20T06:03:25.847Z,64.56
2019-04-20T06:06:03.787Z,63.73
2019-04-20T06:08:38.975Z,62.28
2019-04-20T06:10:56.228Z,60.90
2019-04-20T06:13:47.063Z,60.71
2019-04-20T06:16:29.875Z,61.52
2019-04-20T06:19:18.224Z,61.22
2019-04-20T06:21:45.750Z,59.92
2019-04-20T06:24:27.402Z,60.12
2019-04-20T06:27:03.214Z,60.35
2019-04-20T06:29:22.532Z,58.97
2019-04-20T06:31:58.090Z,59.75
2019-04-20T06:34:33.392Z,58.25
2019-04-20T06:37:02.138Z,57.34
2019-04-20T06:39:40.427Z,58.48
2019-04-20T06:44:35.648Z,56.42
2019-04-20T06:47:13.523Z,56.18
2019-04-20T06:49:36.864Z,54.89
2019-04-20T06:52:20.254Z,54.99
2019-04-20T06:55:01.058Z,55.72
2019-04-20T06:57:34.765Z,55.41
2019-04-20T07:00:07.448Z,54.86
2019-04-20T07:02:41.488Z,53.73
2019-04-20T07:07:36.276Z,55.27
2019-04-20T07:10:14.087Z,55.13
2019-04-20T07:12:39.587Z,54.98
2019-04-20T07:15:08.420Z,54.59
2019-04-20T07:20:39.587Z,54.84
2019-04-20T07:25:37.548Z,53.46
2019-04-20T07:28:05.370Z,53.38
2019-04-20T07:30:42.433Z,53.40
2019-04-20T07:33:08.783Z,53.83
2019-04-20T07:35:46.185Z,52.62
2019-04-20T07:38:29.679Z,53.21
2019-04-20T07:40:38.457Z,52.72
2019-04-20T07:43:12.304Z,51.98
2019-04-20T07:45:37.608Z,50.03
2019-04-20T07:48:16.726Z,48.80
2019-04-20T07:50:40.802Z,47.81
2019-04-20T07:53:16.790Z,47.09
2019-04-20T07:58:12.246Z,46.72
2019-04-20T08:01:02.563Z,47.02
2019-04-20T08:03:45.954Z,46.36
2019-04-20T08:06:21.176Z,46.56
2019-04-20T08:09:04.067Z,46.50
2019-04-20T08:11:37.977Z,46.10
2019-04-20T08:14:12.520Z,45.61
2019-04-20T08:16:49.142Z,44.44
2019-04-20T08:19:07.862Z,43.47
2019-04-20T08:21:43.736Z,42.84
2019-04-20T08:24:07.617Z,42.30
2019-04-20T08:26:28.876Z,40.90
2019-04-20T08:29:09.215Z,39.88
2019-04-20T08:32:02.750Z,39.44
2019-04-20T08:34:39.809Z,40.25
2019-04-20T08:37:01.023Z,38.69
2019-04-20T08:39:48.156Z,41.16
2019-04-20T08:42:07.451Z,42.13
2019-04-20T08:44:53.718Z,41.76
2019-04-20T08:47:24.200Z,42.21
2019-04-20T08:49:42.697Z,41.93
2019-04-20T08:52:31.952Z,41.85
2019-04-20T08:54:34.514Z,40.74
2019-04-20T08:56:56.387Z,40.76
2019-04-20T08:59:23.762Z,40.66
2019-04-20T09:01:58.125Z,38.94
2019-04-20T09:04:37.109Z,38.52
2019-04-20T09:07:09.541Z,38.62
2019-04-20T09:09:56.371Z,37.53
2019-04-20T09:12:14.480Z,37.54
2019-04-20T09:14:37.964Z,35.37
2019-04-20T09:17:23.028Z,34.53
2019-04-20T09:19:55.786Z,34.42
2019-04-20T09:22:46.697Z,33.65
2019-04-20T09:25:43.079Z,33.70
2019-04-20T09:27:44.969Z,34.17
2019-04-20T09:30:25.688Z,34.31
2019-04-20T09:33:09.625Z,33.38
2019-04-20T09:35:37.114Z,32.79
2019-04-20T09:38:12.177Z,33.27
2019-04-20T09:40:45.987Z,35.57
2019-04-20T09:43:30.376Z,33.37
2019-04-20T09:46:04.605Z,33.40
2019-04-20T09:48:34.689Z,33.66
2019-04-20T09:51:20.335Z,33.63
2019-04-20T09:53:43.203Z,37.00
2019-04-20T09:56:18.152Z,35.13
2019-04-20T09:58:55.092Z,33.42
2019-04-20T10:01:18.152Z,33.36
2019-04-20T10:03:34.573Z,35.48
2019-04-20T10:06:03.543Z,33.98
2019-04-20T10:08:35.956Z,32.42
2019-04-20T10:11:03.518Z,33.51
2019-04-20T10:13:34.365Z,34.00
2019-04-20T10:16:03.841Z,33.00
2019-04-20T10:18:34.247Z,31.69
2019-04-20T10:21:03.434Z,32.27
2019-04-20T10:23:32.534Z,31.44
2019-04-20T10:26:01.049Z,32.27
2019-04-20T10:28:33.852Z,30.52
2019-04-20T10:31:04.327Z,31.04
2019-04-20T10:33:33.545Z,31.42
2019-04-20T10:36:03.544Z,31.43
2019-04-20T10:38:35.594Z,31.71
2019-04-20T10:41:11.261Z,30.37
2019-04-20T10:43:33.335Z,28.77
2019-04-20T10:46:06.807Z,30.14
2019-04-20T10:48:41.593Z,32.34
2019-04-20T10:51:08.251Z,30.87
2019-04-20T10:53:38.358Z,29.78
2019-04-20T10:56:09.587Z,31.38
2019-04-20T10:58:40.812Z,30.99
2019-04-20T11:01:11.551Z,31.73
2019-04-20T11:03:40.691Z,29.46
2019-04-20T11:06:11.082Z,31.82
2019-04-20T11:08:40.480Z,29.31
2019-04-20T11:11:16.401Z,32.40
2019-04-20T11:13:43.439Z,31.83
2019-04-20T11:16:14.839Z,31.01
2019-04-20T11:18:45.298Z,31.03
2019-04-20T11:21:13.841Z,30.99
2019-04-20T11:23:46.607Z,30.62
2019-04-20T11:26:18.133Z,30.26
2019-04-20T11:28:46.752Z,29.35
2019-04-20T11:31:16.586Z,30.18
2019-04-20T11:33:48.251Z,30.18
2019-04-20T11:36:21.480Z,31.11
2019-04-20T11:38:51.168Z,32.72
2019-04-20T11:41:26.130Z,30.80
2019-04-20T11:43:54.048Z,30.75
2019-04-20T11:46:22.848Z,29.50
2019-04-20T11:48:51.954Z,33.56
2019-04-20T11:51:23.373Z,30.77
2019-04-20T11:53:54.348Z,31.44
2019-04-20T11:56:32.945Z,32.00
2019-04-20T11:58:56.817Z,32.24
2019-04-20T12:01:53.062Z,32.39
2019-04-20T12:04:32.775Z,32.20
2019-04-20T12:06:52.882Z,31.62
2019-04-20T12:09:21.711Z,30.88
2019-04-20T12:12:04.252Z,30.85
2019-04-20T12:14:22.970Z,31.85
2019-04-20T12:16:53.418Z,32.12
2019-04-20T12:19:22.918Z,31.99
2019-04-20T12:21:51.764Z,32.02
2019-04-20T12:24:20.712Z,31.50
2019-04-20T12:26:50.976Z,29.78
2019-04-20T12:29:19.719Z,30.70
2019-04-20T12:31:53.789Z,31.09
2019-04-20T12:34:20.483Z,31.35
2019-04-20T12:36:55.169Z,29.50
2019-04-20T12:39:24.894Z,31.41
2019-04-20T12:42:00.483Z,31.87
2019-04-20T12:44:28.038Z,29.41
2019-04-20T12:46:57.208Z,29.84
2019-04-20T12:49:27.617Z,29.00
2019-04-20T12:52:00.221Z,29.64
2019-04-20T12:54:26.998Z,32.16
2019-04-20T12:56:56.344Z,28.76
2019-04-20T12:59:25.621Z,29.48
2019-04-20T13:01:55.412Z,29.67
2019-04-20T13:04:24.697Z,29.08
2019-04-20T13:06:57.581Z,28.23
2019-04-20T13:09:28.658Z,28.88
2019-04-20T13:12:06.990Z,29.42
2019-04-20T13:15:02.853Z,29.09
2019-04-20T13:17:35.120Z,28.03
2019-04-20T13:20:05.860Z,28.93
2019-04-20T13:22:34.940Z,29.38
2019-04-20T13:25:03.689Z,27.32
2019-04-20T13:27:32.769Z,28.80
2019-04-20T13:30:02.923Z,26.91
2019-04-20T13:32:31.949Z,26.76
2019-04-20T13:35:00.512Z,25.99
2019-04-20T13:37:29.098Z,26.96
2019-04-20T13:40:00.690Z,25.93
2019-04-20T13:42:31.416Z,27.44
2019-04-20T13:45:01.056Z,27.94
2019-04-20T13:47:30.561Z,26.61
2019-04-20T13:50:01.092Z,25.64
2019-04-20T13:52:30.940Z,25.27
2019-04-20T13:55:05.309Z,25.71
2019-04-20T13:57:47.159Z,27.71
2019-04-20T14:00:34.408Z,26.84
2019-04-20T14:03:07.031Z,27.16
2019-04-20T14:05:38.513Z,25.92
2019-04-20T14:08:09.560Z,26.05
2019-04-20T14:10:39.682Z,24.99
2019-04-20T14:13:14.823Z,26.35
2019-04-20T14:15:40.936Z,26.15
2019-04-20T14:18:11.137Z,25.19
2019-04-20T14:20:42.832Z,25.47
2019-04-20T14:23:12.738Z,25.00
2019-04-20T14:25:44.772Z,25.80
2019-04-20T14:28:15.414Z,25.67
2019-04-20T14:30:47.839Z,24.27
2019-04-20T14:33:18.940Z,25.10
2019-04-20T14:35:48.374Z,28.55
2019-04-20T14:38:17.692Z,25.25
2019-04-20T14:40:46.420Z,28.61
2019-04-20T14:43:17.194Z,27.04
2019-04-20T14:45:48.154Z,27.98
2019-04-20T14:48:18.615Z,25.57
2019-04-20T14:50:47.776Z,26.45
2019-04-20T14:53:19.750Z,25.94
2019-04-20T14:55:49.336Z,27.55
2019-04-20T14:58:43.403Z,27.44
2019-04-20T15:01:30.308Z,26.94
2019-04-20T15:04:04.786Z,28.42
2019-04-20T15:06:36.154Z,27.27
2019-04-20T15:09:06.340Z,26.59
2019-04-20T15:11:38.169Z,24.93
2019-04-20T15:14:07.132Z,25.70
2019-04-20T15:16:38.498Z,25.13
2019-04-20T15:19:27.532Z,26.99
2019-04-20T15:21:59.808Z,26.48
2019-04-20T15:24:31.550Z,26.62
2019-04-20T15:26:58.759Z,28.24
2019-04-20T15:29:28.513Z,29.30
2019-04-20T15:31:57.710Z,25.46
2019-04-20T15:34:26.766Z,27.06
2019-04-20T15:36:56.045Z,26.54
2019-04-20T15:39:27.369Z,25.02
2019-04-20T15:41:57.077Z,25.78
2019-04-20T15:44:27.146Z,26.20
2019-04-20T15:46:57.327Z,28.46
2019-04-20T15:49:28.387Z,25.50
2019-04-20T15:51:59.732Z,27.69
2019-04-20T15:54:29.615Z,26.40
2019-04-20T15:57:07.517Z,27.39
2019-04-20T15:59:32.518Z,27.73
2019-04-20T16:02:09.430Z,26.75
2019-04-20T16:05:04.054Z,27.21
2019-04-20T16:07:40.638Z,25.92
2019-04-20T16:10:05.359Z,26.19
2019-04-20T16:12:35.190Z,27.11
2019-04-20T16:15:07.336Z,28.05
2019-04-20T16:17:39.067Z,28.86
2019-04-20T16:20:12.575Z,28.70
2019-04-20T16:22:38.434Z,25.25
2019-04-20T16:25:23.483Z,26.52
2019-04-20T16:27:52.158Z,25.55
2019-04-20T16:30:23.382Z,26.60
2019-04-20T16:32:54.645Z,26.12
2019-04-20T16:35:24.480Z,27.03
2019-04-20T16:37:53.244Z,27.85
2019-04-20T16:40:23.302Z,27.98
2019-04-20T16:42:52.362Z,28.97
2019-04-20T16:45:23.274Z,28.18
2019-04-20T16:47:52.505Z,27.47
2019-04-20T16:50:22.492Z,27.00
2019-04-20T16:52:52.653Z,26.78
2019-04-20T16:55:25.020Z,26.95
2019-04-20T16:57:55.413Z,28.16
2019-04-20T17:00:25.432Z,28.75
2019-04-20T17:02:58.453Z,27.80
2019-04-20T17:05:27.623Z,27.08
2019-04-20T17:07:57.401Z,28.64
2019-04-20T17:10:28.855Z,28.43
2019-04-20T17:12:57.810Z,28.25
2019-04-20T17:15:29.745Z,29.07
2019-04-20T17:18:01.688Z,29.80
2019-04-20T17:20:30.746Z,27.29
2019-04-20T17:23:00.378Z,28.01
2019-04-20T17:25:34.025Z,29.06
2019-04-20T17:28:20.842Z,30.32
2019-04-20T17:31:11.790Z,30.83
2019-04-20T17:34:41.412Z,30.16
2019-04-20T17:36:52.866Z,31.70
2019-04-20T17:39:33.957Z,32.48
2019-04-20T17:42:07.535Z,33.01
2019-04-20T17:44:44.212Z,32.46
2019-04-20T17:47:20.531Z,33.35
2019-04-20T17:49:43.749Z,32.95
2019-04-20T17:52:26.531Z,34.18
2019-04-20T17:54:45.650Z,34.01
2019-04-20T17:57:15.263Z,34.58
2019-04-20T17:59:53.265Z,35.94
2019-04-20T18:02:49.372Z,34.84
2019-04-20T18:05:37.138Z,35.22
2019-04-20T18:08:09.364Z,36.94
2019-04-20T18:10:31.219Z,37.65
2019-04-20T18:12:50.387Z,35.72
2019-04-20T18:15:34.864Z,37.27
2019-04-20T18:18:28.492Z,37.84
2019-04-20T18:20:48.518Z,39.34
2019-04-20T18:23:25.543Z,41.83
2019-04-20T18:26:17.297Z,43.04
2019-04-20T18:28:46.722Z,43.89
2019-04-20T18:31:21.799Z,42.98
2019-04-20T18:33:54.089Z,42.72
2019-04-20T18:36:30.629Z,43.09
2019-04-20T18:38:59.492Z,42.83
2019-04-20T18:41:34.313Z,43.39
2019-04-20T18:43:59.013Z,41.83
2019-04-20T18:46:49.850Z,43.62
2019-04-20T18:49:16.755Z,42.44
2019-04-20T18:51:29.997Z,42.07
2019-04-20T18:54:05.688Z,42.75
2019-04-20T18:56:38.309Z,44.24
2019-04-20T18:59:03.113Z,45.81
2019-04-20T19:01:34.896Z,45.96
2019-04-20T19:04:02.112Z,46.19
2019-04-20T19:06:31.831Z,46.76
2019-04-20T19:09:00.882Z,45.36
2019-04-20T19:11:30.803Z,46.65
2019-04-20T19:14:32.528Z,46.59
2019-04-20T19:17:05.795Z,47.40
2019-04-20T19:19:39.883Z,48.08
2019-04-20T19:22:06.045Z,47.87
2019-04-20T19:24:37.890Z,47.99
2019-04-20T19:27:10.669Z,47.99
2019-04-20T19:29:47.287Z,48.08
2019-04-20T19:32:24.964Z,48.47
2019-04-20T19:34:52.663Z,48.12
2019-04-20T19:37:20.378Z,47.15
2019-04-20T19:39:54.725Z,46.83
2019-04-20T19:42:33.268Z,47.36
2019-04-20T19:45:01.931Z,48.11
2019-04-20T19:47:36.888Z,49.09
2019-04-20T19:50:23.813Z,49.05
2019-04-20T19:52:44.414Z,49.18
2019-04-20T19:55:06.981Z,49.20
2019-04-20T19:57:39.834Z,48.79
2019-04-20T19:59:55.823Z,48.92
2019-04-20T20:02:23.607Z,48.65
2019-04-20T20:05:00.510Z,47.87
2019-04-20T20:07:30.994Z,47.99
2019-04-20T20:10:00.496Z,48.69
2019-04-20T20:12:27.305Z,48.42
2019-04-20T20:14:57.445Z,49.04
2019-04-20T20:17:50.841Z,50.01
2019-04-20T20:20:20.028Z,50.96
2019-04-20T20:22:34.791Z,50.77
2019-04-20T20:24:58.973Z,50.13
2019-04-20T20:27:37.712Z,50.55
2019-04-20T20:30:11.959Z,50.62
2019-04-20T20:32:47.047Z,50.61
2019-04-20T20:35:09.133Z,51.18
2019-04-20T20:37:44.794Z,51.87
2019-04-20T20:40:16.033Z,52.19
2019-04-20T20:42:54.071Z,53.02
2019-04-20T20:45:18.784Z,53.50
2019-04-20T20:48:01.622Z,53.86
2019-04-20T20:52:58.457Z,53.57
2019-04-20T20:55:29.201Z,53.04
2019-04-20T20:57:59.305Z,52.59
2019-04-20T21:00:34.421Z,52.68
2019-04-20T21:02:59.255Z,52.82
2019-04-20T21:05:22.010Z,53.87
2019-04-20T21:07:51.426Z,53.62
2019-04-20T21:10:25.849Z,53.81
2019-04-20T21:12:55.385Z,53.57
2019-04-20T21:15:24.206Z,53.33
2019-04-20T21:18:17.391Z,53.97
2019-04-20T21:20:44.407Z,54.45
2019-04-20T21:23:13.565Z,55.03
2019-04-20T21:25:37.769Z,54.39
2019-04-20T21:28:04.797Z,55.01
2019-04-20T21:30:41.572Z,54.83
2019-04-20T21:33:07.832Z,55.97
2019-04-20T21:35:44.584Z,56.37
2019-04-20T21:38:12.058Z,56.34
2019-04-20T21:40:41.454Z,56.13
2019-04-20T21:43:10.968Z,56.13
2019-04-20T21:45:47.859Z,56.43
2019-04-20T21:48:32.964Z,57.24
2019-04-20T21:50:59.745Z,57.98
2019-04-20T21:53:19.720Z,58.39
2019-04-20T21:55:41.892Z,59.14
2019-04-20T21:58:14.046Z,59.43
2019-04-20T22:01:05.058Z,59.80
2019-04-20T22:03:26.988Z,59.07
2019-04-20T22:06:04.847Z,57.55
2019-04-20T22:08:34.649Z,58.92
2019-04-20T22:11:04.015Z,59.47
2019-04-20T22:13:38.088Z,59.26
2019-04-20T22:16:07.224Z,58.81
2019-04-20T22:18:46.365Z,60.11
2019-04-20T22:21:14.728Z,59.94
2019-04-20T22:23:54.606Z,60.40
2019-04-20T22:26:17.620Z,60.66
2019-04-20T22:28:38.298Z,62.08
2019-04-20T22:31:09.589Z,60.78
2019-04-20T22:33:41.291Z,60.51
2019-04-20T22:36:11.345Z,60.81
2019-04-20T22:39:07.345Z,60.46
2019-04-20T22:41:40.663Z,60.44
2019-04-20T22:44:15.189Z,61.36
2019-04-20T22:46:44.029Z,61.77
2019-04-20T22:49:32.983Z,62.29
2019-04-20T22:51:53.206Z,62.29
2019-04-20T22:54:35.623Z,63.93
2019-04-20T22:56:58.621Z,63.54
2019-04-20T22:59:22.858Z,63.85
2019-04-20T23:01:53.452Z,63.79
2019-04-20T23:04:19.160Z,64.46
2019-04-20T23:06:52.364Z,64.46
2019-04-20T23:09:20.611Z,65.37
2019-04-20T23:11:49.514Z,66.07
2019-04-20T23:14:22.678Z,66.07
2019-04-20T23:16:57.058Z,65.56
2019-04-20T23:19:34.289Z,64.99
2019-04-20T23:21:59.725Z,64.53
2019-04-20T23:24:26.938Z,63.99
2019-04-20T23:26:55.744Z,63.93
2019-04-20T23:29:27.205Z,63.74
2019-04-20T23:31:59.682Z,63.06
2019-04-20T23:34:28.837Z,63.17
2019-04-20T23:36:56.751Z,63.41
2019-04-20T23:39:34.762Z,63.75
2019-04-20T23:42:04.031Z,64.33
2019-04-20T23:44:35.712Z,65.24
2019-04-20T23:47:27.796Z,65.16
2019-04-20T23:50:16.287Z,66.16
2019-04-20T23:52:55.125Z,66.58
2019-04-20T23:55:05.928Z,66.58
2019-04-20T23:57:33.606Z,67.27
